createdAt,value
2019-05-21T00:01:15.578Z,59.13
2019-05-21T00:03:45.254Z,61.30
2019-05-21T00:06:15.456Z,70.47
2019-05-21T00:08:45.075Z,67.55
2019-05-21T00:11:14.694Z,76.02
2019-05-21T00:13:45.328Z,72.42
2019-05-21T00:16:15.240Z,69.42
2019-05-21T00:18:45.115Z,67.12
2019-05-21T00:21:15.429Z,65.00
2019-05-21T00:23:45.789Z,73.60
2019-05-21T00:26:15.721Z,74.97
2019-05-21T00:29:21.074Z,69.50
2019-05-21T00:32:26.060Z,75.30
2019-05-21T00:35:45.205Z,72.85
2019-05-21T00:38:52.096Z,74.60
2019-05-21T00:41:58.819Z,70.12
2019-05-21T00:44:29.764Z,75.67
2019-05-21T00:47:00.044Z,65.90
2019-05-21T00:49:29.648Z,73.70
2019-05-21T00:52:08.035Z,66.30
2019-05-21T00:54:31.491Z,67.67
2019-05-21T00:57:01.473Z,69.17
2019-05-21T00:59:31.669Z,70.12
2019-05-21T01:02:01.929Z,69.58
2019-05-21T01:04:32.155Z,72.08
2019-05-21T01:07:01.514Z,71.05
2019-05-21T01:09:30.803Z,65.17
2019-05-21T01:12:02.486Z,68.05
2019-05-21T01:14:32.856Z,68.80
2019-05-21T01:17:03.113Z,63.55
2019-05-21T01:19:33.149Z,72.12
2019-05-21T01:22:03.096Z,53.38
2019-05-21T01:24:33.346Z,57.75
2019-05-21T01:27:03.553Z,57.53
2019-05-21T01:29:33.529Z,57.83
2019-05-21T01:32:03.805Z,61.35
2019-05-21T01:34:34.129Z,58.52
2019-05-21T01:37:04.544Z,62.05
2019-05-21T01:39:34.512Z,55.05
2019-05-21T01:42:04.446Z,57.88
2019-05-21T01:44:35.154Z,55.70
2019-05-21T01:47:05.420Z,53.35
2019-05-21T01:49:35.662Z,56.18
2019-05-21T01:52:05.219Z,54.95
2019-05-21T01:54:34.835Z,50.78
2019-05-21T01:57:04.569Z,51.10
2019-05-21T01:59:34.544Z,53.02
2019-05-21T02:02:04.472Z,54.23
2019-05-21T02:04:34.099Z,54.40
2019-05-21T02:07:03.975Z,48.55
2019-05-21T02:09:36.012Z,48.13
2019-05-21T02:12:06.527Z,42.83
2019-05-21T02:14:36.822Z,42.78
2019-05-21T02:17:06.544Z,38.45
2019-05-21T02:19:36.486Z,43.80
2019-05-21T02:22:06.074Z,39.55
2019-05-21T02:24:35.658Z,39.42
2019-05-21T02:27:05.271Z,43.57
2019-05-21T02:29:35.139Z,37.98
2019-05-21T02:32:04.784Z,36.58
2019-05-21T02:34:34.981Z,39.65
2019-05-21T02:37:06.359Z,39.20
2019-05-21T02:39:37.188Z,39.50
2019-05-21T02:42:06.842Z,42.75
2019-05-21T02:44:38.742Z,39.90
2019-05-21T02:47:09.036Z,35.68
2019-05-21T02:49:39.593Z,37.93
2019-05-21T02:52:10.171Z,37.10
2019-05-21T02:54:41.677Z,38.58
2019-05-21T02:57:11.389Z,36.20
2019-05-21T02:59:42.231Z,33.98
2019-05-21T03:02:18.302Z,38.73
2019-05-21T03:04:48.289Z,37.53
2019-05-21T03:07:21.100Z,34.73
2019-05-21T03:09:50.607Z,37.17
2019-05-21T03:12:20.811Z,38.13
2019-05-21T03:14:50.768Z,36.68
2019-05-21T03:17:20.955Z,31.50
2019-05-21T03:19:51.256Z,33.40
2019-05-21T03:22:20.831Z,33.18
2019-05-21T03:24:50.869Z,28.17
2019-05-21T03:27:20.500Z,33.78
2019-05-21T03:29:50.554Z,32.30
2019-05-21T03:32:21.060Z,30.30
2019-05-21T03:34:51.403Z,27.02
2019-05-21T03:37:21.270Z,26.05
2019-05-21T03:39:51.637Z,26.48
2019-05-21T03:42:21.494Z,22.48
2019-05-21T03:44:59.828Z,25.08
2019-05-21T03:47:23.957Z,25.70
2019-05-21T03:49:54.021Z,23.22
2019-05-21T03:52:23.741Z,21.93
2019-05-21T03:54:54.300Z,22.75
2019-05-21T03:57:24.253Z,23.65
2019-05-21T03:59:54.220Z,21.37
2019-05-21T04:02:24.143Z,22.87
2019-05-21T04:04:54.464Z,24.57
2019-05-21T04:07:24.773Z,23.50
2019-05-21T04:09:54.979Z,19.10
2019-05-21T04:12:24.975Z,21.12
2019-05-21T04:14:58.868Z,21.02
2019-05-21T04:17:59.698Z,20.12
2019-05-21T04:20:29.269Z,22.85
2019-05-21T04:22:59.919Z,20.00
2019-05-21T04:25:29.928Z,20.52
2019-05-21T04:27:59.936Z,22.10
2019-05-21T04:30:30.499Z,19.10
2019-05-21T04:33:00.065Z,15.63
2019-05-21T04:35:30.335Z,19.00
2019-05-21T04:37:59.924Z,18.67
2019-05-21T04:40:29.608Z,17.23
2019-05-21T04:43:02.229Z,15.83
2019-05-21T04:45:31.251Z,21.37
2019-05-21T04:48:01.184Z,15.65
2019-05-21T04:50:31.129Z,19.50
2019-05-21T04:53:01.031Z,15.18
2019-05-21T04:55:31.334Z,14.58
2019-05-21T04:58:00.997Z,15.05
2019-05-21T05:00:31.298Z,16.48
2019-05-21T05:03:01.486Z,15.65
2019-05-21T05:05:31.926Z,15.65
2019-05-21T05:08:02.593Z,15.20
2019-05-21T05:10:32.909Z,15.93
2019-05-21T05:13:03.201Z,17.20
2019-05-21T05:15:32.854Z,16.35
2019-05-21T05:18:02.804Z,19.37
2019-05-21T05:20:32.727Z,17.15
2019-05-21T05:23:02.624Z,16.77
2019-05-21T05:25:33.408Z,19.65
2019-05-21T05:28:02.726Z,15.48
2019-05-21T05:30:32.753Z,15.28
2019-05-21T05:33:02.763Z,13.22
2019-05-21T05:35:33.294Z,13.88
2019-05-21T05:38:03.853Z,14.45
2019-05-21T05:40:34.105Z,13.93
2019-05-21T05:43:04.385Z,11.90
2019-05-21T05:45:34.687Z,13.08
2019-05-21T05:48:04.734Z,12.60
2019-05-21T05:50:37.860Z,11.93
2019-05-21T05:53:07.506Z,13.00
2019-05-21T05:55:37.715Z,11.25
2019-05-21T05:58:07.617Z,10.30
2019-05-21T06:00:38.158Z,11.70
2019-05-21T06:03:08.455Z,9.65
2019-05-21T06:05:38.487Z,16.37
2019-05-21T06:08:08.825Z,10.10
2019-05-21T06:10:40.082Z,10.48
2019-05-21T06:13:10.568Z,8.93
2019-05-21T06:15:41.299Z,10.58
2019-05-21T06:18:11.618Z,14.35
2019-05-21T06:20:41.823Z,9.80
2019-05-21T06:23:11.764Z,8.90
2019-05-21T06:25:41.752Z,10.30
2019-05-21T06:28:12.013Z,9.20
2019-05-21T06:30:41.628Z,9.88
2019-05-21T06:33:11.581Z,11.03
2019-05-21T06:35:42.173Z,8.70
2019-05-21T06:38:17.596Z,12.47
2019-05-21T06:40:44.090Z,7.08
2019-05-21T06:43:13.452Z,8.63
2019-05-21T06:45:43.685Z,9.18
2019-05-21T06:48:14.230Z,13.35
2019-05-21T06:50:44.583Z,11.05
2019-05-21T06:53:14.221Z,10.05
2019-05-21T06:55:44.207Z,7.80
2019-05-21T06:58:14.441Z,10.03
2019-05-21T07:00:44.743Z,10.25
2019-05-21T07:03:14.352Z,10.50
2019-05-21T07:05:57.543Z,10.28
2019-05-21T07:08:15.864Z,7.22
2019-05-21T07:10:45.754Z,10.93
2019-05-21T07:13:15.646Z,12.98
2019-05-21T07:15:45.575Z,13.83
2019-05-21T07:18:15.250Z,8.43
2019-05-21T07:20:45.197Z,7.47
2019-05-21T07:23:14.846Z,9.85
2019-05-21T07:25:45.084Z,6.30
2019-05-21T07:28:15.617Z,8.58
2019-05-21T07:30:45.598Z,9.40
2019-05-21T07:33:16.051Z,6.58
2019-05-21T07:35:46.122Z,4.22
2019-05-21T07:38:16.349Z,8.60
2019-05-21T07:40:45.633Z,9.88
2019-05-21T07:43:15.522Z,13.20
2019-05-21T07:45:45.848Z,11.78
2019-05-21T07:48:15.744Z,7.42
2019-05-21T07:50:45.055Z,6.30
2019-05-21T07:53:15.351Z,8.90
2019-05-21T07:55:45.599Z,8.43
2019-05-21T07:58:15.772Z,6.78
2019-05-21T08:00:45.982Z,6.60
2019-05-21T08:03:15.523Z,5.42
2019-05-21T08:05:45.728Z,4.08
2019-05-21T08:08:40.552Z,3.75
2019-05-21T08:11:11.171Z,4.15
2019-05-21T08:13:40.891Z,4.65
2019-05-21T08:16:11.097Z,4.22
2019-05-21T08:18:40.979Z,3.80
2019-05-21T08:21:11.207Z,4.05
2019-05-21T08:23:40.860Z,3.35
2019-05-21T08:26:10.836Z,3.77
2019-05-21T08:28:40.473Z,3.33
2019-05-21T08:31:10.431Z,2.27
2019-05-21T08:33:40.963Z,3.05
2019-05-21T08:36:10.984Z,3.40
2019-05-21T08:38:41.276Z,3.72
2019-05-21T08:41:11.555Z,1.92
2019-05-21T08:43:42.152Z,2.20
2019-05-21T08:46:11.778Z,2.60
2019-05-21T08:48:41.731Z,3.12
2019-05-21T08:51:12.022Z,2.60
2019-05-21T08:53:41.700Z,2.58
2019-05-21T08:56:11.110Z,3.50
2019-05-21T08:58:40.677Z,2.02
2019-05-21T09:01:10.862Z,6.78
2019-05-21T09:03:41.580Z,2.33
2019-05-21T09:06:11.520Z,2.58
2019-05-21T09:08:41.802Z,3.92
2019-05-21T09:11:12.590Z,2.25
2019-05-21T09:13:42.472Z,3.02
2019-05-21T09:16:13.072Z,2.90
2019-05-21T09:18:42.692Z,2.60
2019-05-21T09:21:12.548Z,3.45
2019-05-21T09:23:42.119Z,2.72
2019-05-21T09:26:12.005Z,2.55
2019-05-21T09:28:42.541Z,2.62
2019-05-21T09:31:12.167Z,3.98
2019-05-21T09:33:42.432Z,3.62
2019-05-21T09:36:12.362Z,2.20
2019-05-21T09:38:42.344Z,3.42
2019-05-21T09:41:12.258Z,2.00
2019-05-21T09:43:42.340Z,2.17
2019-05-21T09:46:12.340Z,2.80
2019-05-21T09:48:42.019Z,3.30
2019-05-21T09:51:19.744Z,3.65
2019-05-21T09:53:44.313Z,3.00
2019-05-21T09:56:31.852Z,3.12
2019-05-21T09:59:05.585Z,4.75
2019-05-21T10:01:41.672Z,2.40
2019-05-21T10:04:12.102Z,3.30
2019-05-21T10:06:42.534Z,3.02
2019-05-21T10:09:17.368Z,1.75
2019-05-21T10:11:47.687Z,1.30
2019-05-21T10:14:17.711Z,2.75
2019-05-21T10:16:49.171Z,1.52
2019-05-21T10:19:19.119Z,2.35
2019-05-21T10:21:49.422Z,1.98
2019-05-21T10:24:19.648Z,1.60
2019-05-21T10:26:49.642Z,2.55
2019-05-21T10:29:19.268Z,2.25
2019-05-21T10:31:49.531Z,2.42
2019-05-21T10:34:19.419Z,3.08
2019-05-21T10:36:50.004Z,2.52
2019-05-21T10:39:20.201Z,6.58
2019-05-21T10:41:50.680Z,2.30
2019-05-21T10:44:21.368Z,1.35
2019-05-21T10:46:50.629Z,1.98
2019-05-21T10:49:20.646Z,2.67
2019-05-21T10:51:50.840Z,3.90
2019-05-21T10:54:21.369Z,3.10
2019-05-21T10:56:51.278Z,3.42
2019-05-21T10:59:21.677Z,2.55
2019-05-21T11:02:04.013Z,1.62
2019-05-21T11:04:52.982Z,2.60
2019-05-21T11:07:23.914Z,2.67
2019-05-21T11:09:53.929Z,2.17
2019-05-21T11:12:24.303Z,3.37
2019-05-21T11:14:54.232Z,3.00
2019-05-21T11:17:24.212Z,3.25
2019-05-21T11:19:54.098Z,3.95
2019-05-21T11:22:24.892Z,4.08
2019-05-21T11:24:55.111Z,3.80
2019-05-21T11:27:25.290Z,2.62
2019-05-21T11:29:55.659Z,3.33
2019-05-21T11:32:25.713Z,2.80
2019-05-21T11:34:55.303Z,3.10
2019-05-21T11:37:25.308Z,3.27
2019-05-21T11:39:55.626Z,5.80
2019-05-21T11:42:25.844Z,4.83
2019-05-21T11:44:55.511Z,1.70
2019-05-21T11:47:25.075Z,2.50
2019-05-21T11:49:55.354Z,3.42
2019-05-21T11:52:25.363Z,4.58
2019-05-21T11:54:57.132Z,3.62
2019-05-21T11:57:26.734Z,3.85
2019-05-21T11:59:56.407Z,3.08
2019-05-21T12:02:26.688Z,3.25
2019-05-21T12:04:56.649Z,3.87
2019-05-21T12:07:27.224Z,3.42
2019-05-21T12:09:56.971Z,4.40
2019-05-21T12:12:26.940Z,3.90
2019-05-21T12:14:57.177Z,3.95
2019-05-21T12:17:27.491Z,3.92
2019-05-21T12:19:57.768Z,3.98
2019-05-21T12:22:27.990Z,3.83
2019-05-21T12:24:57.905Z,4.58
2019-05-21T12:27:27.878Z,3.05
2019-05-21T12:29:57.514Z,4.70
2019-05-21T12:32:27.134Z,4.25
2019-05-21T12:34:56.770Z,4.42
2019-05-21T12:37:27.051Z,4.17
2019-05-21T12:39:57.756Z,4.22
2019-05-21T12:42:27.725Z,3.72
2019-05-21T12:44:58.037Z,4.70
2019-05-21T12:47:28.068Z,3.50
2019-05-21T12:49:57.998Z,3.42
2019-05-21T12:52:28.603Z,3.92
2019-05-21T12:54:59.675Z,3.87
2019-05-21T12:57:30.399Z,3.92
2019-05-21T12:59:59.953Z,8.88
2019-05-21T13:02:29.962Z,3.27
2019-05-21T13:05:00.266Z,3.33
2019-05-21T13:07:29.977Z,3.00
2019-05-21T13:10:00.238Z,5.50
2019-05-21T13:12:30.405Z,4.25
2019-05-21T13:15:00.507Z,4.70
2019-05-21T13:17:30.453Z,5.67
2019-05-21T13:20:00.441Z,10.13
2019-05-21T13:22:30.677Z,6.17
2019-05-21T13:25:01.325Z,5.58
2019-05-21T13:27:31.371Z,4.58
2019-05-21T13:30:02.085Z,4.78
2019-05-21T13:32:32.285Z,5.80
2019-05-21T13:35:03.145Z,4.58
2019-05-21T13:37:33.368Z,5.55
2019-05-21T13:40:03.979Z,4.55
2019-05-21T13:42:34.239Z,5.03
2019-05-21T13:45:04.331Z,5.80
2019-05-21T13:47:34.319Z,5.12
2019-05-21T13:50:04.940Z,4.72
2019-05-21T13:52:35.021Z,6.03
2019-05-21T13:55:05.449Z,5.50
2019-05-21T13:57:35.827Z,4.58
2019-05-21T14:00:08.142Z,4.17
2019-05-21T14:02:38.145Z,4.95
2019-05-21T14:05:08.221Z,4.33
2019-05-21T14:07:38.475Z,4.37
2019-05-21T14:10:15.181Z,5.50
2019-05-21T14:12:41.012Z,5.10
2019-05-21T14:15:11.823Z,5.10
2019-05-21T14:17:42.104Z,6.72
2019-05-21T14:20:12.935Z,6.78
2019-05-21T14:22:42.859Z,8.90
2019-05-21T14:25:12.687Z,6.53
2019-05-21T14:27:45.087Z,7.10
2019-05-21T14:30:15.312Z,4.92
2019-05-21T14:32:45.614Z,4.65
2019-05-21T14:35:15.146Z,5.20
2019-05-21T14:37:45.716Z,5.85
2019-05-21T14:40:31.284Z,5.83
2019-05-21T14:42:59.475Z,4.28
2019-05-21T14:45:21.106Z,5.03
2019-05-21T14:47:51.399Z,5.80
2019-05-21T14:50:21.744Z,5.78
2019-05-21T14:52:52.487Z,6.28
2019-05-21T14:55:23.115Z,5.50
2019-05-21T14:57:53.085Z,7.40
2019-05-21T15:00:46.821Z,5.33
2019-05-21T15:03:24.744Z,7.28
2019-05-21T15:05:47.743Z,7.00
2019-05-21T15:08:18.276Z,8.58
2019-05-21T15:10:49.614Z,8.68
2019-05-21T15:13:20.126Z,9.35
2019-05-21T15:15:50.067Z,8.83
2019-05-21T15:18:22.240Z,8.20
2019-05-21T15:21:13.836Z,8.68
2019-05-21T15:23:44.279Z,9.43
2019-05-21T15:26:14.445Z,7.28
2019-05-21T15:28:44.879Z,9.08
2019-05-21T15:31:15.187Z,8.45
2019-05-21T15:33:45.167Z,7.58
2019-05-21T15:36:14.835Z,6.28
2019-05-21T15:38:50.723Z,11.70
2019-05-21T15:41:16.458Z,9.88
2019-05-21T15:43:46.582Z,10.45
2019-05-21T15:46:16.624Z,8.05
2019-05-21T15:48:47.360Z,8.10
2019-05-21T15:51:17.325Z,10.08
2019-05-21T15:53:47.906Z,10.60
2019-05-21T15:56:18.536Z,11.30
2019-05-21T15:58:48.802Z,8.65
2019-05-21T16:01:18.700Z,11.43
2019-05-21T16:03:48.709Z,10.05
2019-05-21T16:06:19.383Z,11.05
2019-05-21T16:08:49.139Z,11.15
2019-05-21T16:11:27.963Z,13.00
2019-05-21T16:13:51.388Z,11.95
2019-05-21T16:16:21.631Z,12.45
2019-05-21T16:18:51.698Z,13.08
2019-05-21T16:21:21.371Z,10.60
2019-05-21T16:23:51.056Z,11.97
2019-05-21T16:26:23.309Z,11.70
2019-05-21T16:28:52.693Z,10.75
2019-05-21T16:31:22.956Z,11.28
2019-05-21T16:33:53.146Z,12.95
2019-05-21T16:36:23.401Z,10.53
2019-05-21T16:38:53.099Z,11.53
2019-05-21T16:41:24.785Z,12.47
2019-05-21T16:43:55.434Z,10.68
2019-05-21T16:46:25.769Z,14.00
2019-05-21T16:48:55.747Z,14.98
2019-05-21T16:51:26.012Z,10.90
2019-05-21T16:53:56.248Z,11.80
2019-05-21T16:56:26.303Z,11.22
2019-05-21T16:58:56.717Z,14.10
2019-05-21T17:01:26.726Z,14.63
2019-05-21T17:03:59.814Z,10.70
2019-05-21T17:06:28.389Z,12.82
2019-05-21T17:08:58.399Z,11.73
2019-05-21T17:11:28.736Z,11.43
2019-05-21T17:13:58.462Z,11.18
2019-05-21T17:16:28.868Z,12.50
2019-05-21T17:18:58.170Z,13.65
2019-05-21T17:21:28.487Z,12.37
2019-05-21T17:23:58.537Z,13.18
2019-05-21T17:26:28.518Z,10.65
2019-05-21T17:28:58.624Z,14.35
2019-05-21T17:31:28.939Z,12.40
2019-05-21T17:33:59.006Z,13.32
2019-05-21T17:36:29.000Z,12.63
2019-05-21T17:38:59.236Z,14.30
2019-05-21T17:41:29.224Z,13.35
2019-05-21T17:43:58.927Z,13.83
2019-05-21T17:46:29.503Z,14.18
2019-05-21T17:48:59.824Z,14.80
2019-05-21T17:51:30.132Z,19.67
2019-05-21T17:54:00.494Z,24.60
2019-05-21T17:56:30.389Z,12.75
2019-05-21T17:59:00.398Z,11.80
2019-05-21T18:01:29.667Z,16.17
2019-05-21T18:04:00.374Z,15.63
2019-05-21T18:06:30.419Z,16.62
2019-05-21T18:09:00.766Z,13.88
2019-05-21T18:11:31.074Z,17.65
2019-05-21T18:14:01.050Z,14.33
2019-05-21T18:16:31.429Z,16.07
2019-05-21T18:19:01.149Z,16.15
2019-05-21T18:21:31.554Z,17.85
2019-05-21T18:24:01.277Z,15.10
2019-05-21T18:26:31.246Z,15.90
2019-05-21T18:29:01.296Z,18.00
2019-05-21T18:31:31.614Z,15.10
2019-05-21T18:34:01.906Z,15.65
2019-05-21T18:36:32.249Z,16.82
2019-05-21T18:39:01.880Z,15.65
2019-05-21T18:41:31.858Z,17.12
2019-05-21T18:44:01.585Z,14.90
2019-05-21T18:46:31.373Z,15.48
2019-05-21T18:49:01.766Z,17.35
2019-05-21T18:51:31.782Z,17.10
2019-05-21T18:54:02.077Z,16.52
2019-05-21T18:56:32.417Z,17.92
2019-05-21T18:59:02.469Z,21.42
2019-05-21T19:01:32.532Z,19.17
2019-05-21T19:04:02.860Z,19.17
2019-05-21T19:06:32.788Z,20.05
2019-05-21T19:09:02.963Z,18.90
2019-05-21T19:11:33.032Z,18.52
2019-05-21T19:14:03.155Z,16.73
2019-05-21T19:16:33.150Z,16.15
2019-05-21T19:19:03.208Z,14.80
2019-05-21T19:21:32.972Z,10.80
2019-05-21T19:24:03.428Z,15.28
2019-05-21T19:26:33.578Z,13.88
2019-05-21T19:29:03.564Z,17.00
2019-05-21T19:31:34.325Z,16.55
2019-05-21T19:34:04.729Z,14.53
2019-05-21T19:36:34.731Z,16.73
2019-05-21T19:39:05.897Z,17.15
2019-05-21T19:41:36.295Z,14.43
2019-05-21T19:44:06.772Z,16.50
2019-05-21T19:46:37.459Z,15.38
2019-05-21T19:49:08.141Z,15.65
2019-05-21T19:51:38.489Z,17.50
2019-05-21T19:54:08.727Z,14.18
2019-05-21T19:56:39.130Z,13.88
2019-05-21T19:59:09.824Z,13.48
2019-05-21T20:01:39.719Z,16.45
2019-05-21T20:04:11.265Z,15.68
2019-05-21T20:06:41.351Z,19.77
2019-05-21T20:09:15.810Z,18.57
2019-05-21T20:11:46.143Z,22.50
2019-05-21T20:14:16.244Z,19.30
2019-05-21T20:16:47.284Z,16.00
2019-05-21T20:19:19.672Z,16.07
2019-05-21T20:21:49.928Z,20.05
2019-05-21T20:24:20.694Z,15.98
2019-05-21T20:26:50.861Z,19.77
2019-05-21T20:29:22.288Z,15.50
2019-05-21T20:31:52.581Z,13.32
2019-05-21T20:34:22.322Z,16.95
2019-05-21T20:36:53.186Z,17.00
2019-05-21T20:39:24.627Z,15.25
2019-05-21T20:41:55.135Z,18.32
2019-05-21T20:44:25.847Z,18.73
2019-05-21T20:46:57.017Z,18.73
2019-05-21T20:49:27.774Z,19.42
2019-05-21T20:52:15.853Z,19.40
2019-05-21T20:54:31.773Z,19.25
2019-05-21T20:57:01.809Z,20.92
2019-05-21T20:59:32.123Z,19.75
2019-05-21T21:02:05.046Z,21.62
2019-05-21T21:04:34.168Z,24.72
2019-05-21T21:07:05.411Z,22.50
2019-05-21T21:09:35.652Z,21.82
2019-05-21T21:12:06.505Z,16.85
2019-05-21T21:14:36.584Z,17.45
2019-05-21T21:17:06.812Z,20.88
2019-05-21T21:19:36.790Z,19.30
2019-05-21T21:22:06.919Z,21.07
2019-05-21T21:24:38.406Z,20.68
2019-05-21T21:27:08.413Z,22.17
2019-05-21T21:29:38.178Z,23.87
2019-05-21T21:32:08.441Z,23.20
2019-05-21T21:34:38.742Z,24.82
2019-05-21T21:37:09.294Z,29.63
2019-05-21T21:39:40.296Z,33.05
2019-05-21T21:42:11.351Z,33.65
2019-05-21T21:44:41.864Z,36.42
2019-05-21T21:47:11.996Z,33.20
2019-05-21T21:49:42.603Z,33.25
2019-05-21T21:52:15.263Z,35.68
2019-05-21T21:54:45.341Z,37.88
2019-05-21T21:57:15.780Z,34.88
2019-05-21T21:59:47.690Z,34.80
2019-05-21T22:02:26.950Z,35.92
2019-05-21T22:04:58.905Z,33.35
2019-05-21T22:07:29.204Z,40.73
2019-05-21T22:09:59.153Z,34.38
2019-05-21T22:12:29.697Z,36.40
2019-05-21T22:15:04.013Z,35.35
2019-05-21T22:17:34.682Z,39.63
2019-05-21T22:20:06.328Z,37.50
2019-05-21T22:22:37.124Z,37.15
2019-05-21T22:25:08.924Z,34.27
2019-05-21T22:27:38.829Z,35.23
2019-05-21T22:30:09.308Z,33.10
2019-05-21T22:32:39.372Z,32.80
2019-05-21T22:35:09.492Z,36.80
2019-05-21T22:37:39.659Z,37.75
2019-05-21T22:40:09.753Z,37.20
2019-05-21T22:42:40.589Z,39.98
2019-05-21T22:45:11.576Z,40.30
2019-05-21T22:47:41.873Z,39.05
2019-05-21T22:50:12.464Z,40.98
2019-05-21T22:52:43.941Z,38.98
2019-05-21T22:55:13.663Z,35.68
2019-05-21T22:57:44.820Z,37.78
2019-05-21T23:00:15.352Z,35.15
2019-05-21T23:02:46.118Z,35.30
2019-05-21T23:05:17.651Z,35.63
2019-05-21T23:07:48.235Z,33.83
2019-05-21T23:10:19.016Z,36.00
2019-05-21T23:12:51.593Z,37.28
2019-05-21T23:15:25.254Z,37.10
2019-05-21T23:17:53.080Z,37.03
2019-05-21T23:20:25.444Z,35.95
2019-05-21T23:22:57.724Z,33.60
2019-05-21T23:25:27.757Z,36.13
2019-05-21T23:27:57.678Z,38.30
2019-05-21T23:30:28.191Z,36.75
2019-05-21T23:32:58.634Z,39.42
2019-05-21T23:35:28.787Z,34.40
2019-05-21T23:37:58.580Z,32.60
2019-05-21T23:40:29.970Z,36.28
2019-05-21T23:43:00.764Z,34.55
2019-05-21T23:45:31.154Z,29.98
2019-05-21T23:48:01.870Z,31.33
2019-05-21T23:50:31.577Z,30.15
2019-05-21T23:53:03.303Z,32.25
2019-05-21T23:55:33.233Z,29.25
2019-05-21T23:58:04.004Z,29.70
